Flight Track Log - Related Links

Times and Time Zones

All times are in EDT time to prevent confusion due to time zone crossing. See the AFR1619 flight status page for this flight to view local times or setup timezone preferences in your user account.

Time Position Orientation Groundspeed Altitude Reporting Facility
EDT Latitude Longitude Course Direction KTS MPH feet Rate Location/Type
Sun 06:23:00 AM 49.8926 7.6172 258° West  Level Estimated
Sun 06:24:00 AM 49.8811 7.5403 257° West  Level Estimated
Sun 06:25:00 AM 49.8695 7.4634 257° West  Level Estimated
Sun 06:26:00 AM 49.8579 7.3865 257° West  Level Estimated
Sun 06:27:00 AM 49.8463 7.3097 257° West  Level Estimated
Sun 06:28:00 AM 49.8346 7.2330 257° West  Level Estimated
Sun 06:29:00 AM 49.8229 7.1562 257° West  Level Estimated
Sun 06:30:00 AM 49.8111 7.0795 257° West  Level Estimated
Sun 06:31:00 AM 49.7993 7.0028 257° West  Level Estimated
Sun 06:32:00 AM 49.7874 6.9262 257° West  Level Estimated
Sun 06:33:00 AM 49.7754 6.8496 256° West  Level Estimated
Sun 06:34:00 AM 49.7634 6.7731 256° West  Level Estimated
Sun 06:35:00 AM 49.7514 6.6966 256° West  Level Estimated
Sun 06:36:00 AM 49.7393 6.6201 256° West  Level Estimated
Sun 06:37:00 AM 49.7272 6.5436 256° West  Level Estimated
Sun 06:38:00 AM 49.7150 6.4672 256° West  Level Estimated
Sun 06:39:00 AM 49.7027 6.3909 256° West  Level Estimated
Sun 06:40:00 AM 49.6904 6.3146 256° West  Level Estimated
Sun 06:41:00 AM 49.6781 6.2383 256° West  Level Estimated
Sun 06:42:00 AM 49.6657 6.1620 256° West  Level Estimated
Sun 06:43:00 AM 49.6533 6.0858 256° West  Level Estimated
Sun 06:44:00 AM 49.6408 6.0097 256° West  Level Estimated
Sun 06:45:00 AM 49.6282 5.9335 256° West  Level Estimated
Sun 06:46:00 AM 49.6156 5.8574 256° West  Level Estimated
Sun 06:47:00 AM 49.6030 5.7814 256° West  Level Estimated
Sun 06:48:00 AM 49.5903 5.7054 256° West  Level Estimated
Sun 06:49:00 AM 49.5775 5.6294 256° West  Level Estimated
Sun 06:50:00 AM 49.5648 5.5535 255° West  Level Estimated
Sun 06:51:00 AM 49.5519 5.4776 255° West  Level Estimated
Sun 06:52:00 AM 49.5390 5.4017 255° West  Level Estimated
Sun 06:53:00 AM 49.5261 5.3259 255° West  Level Estimated
Sun 06:54:00 AM 49.5131 5.2502 255° West  Level Estimated
Sun 06:55:00 AM 49.5001 5.1744 255° West  Level Estimated
Sun 06:56:00 AM 49.4870 5.0987 255° West  Level Estimated
Sun 06:57:00 AM 49.4738 5.0231 255° West  Level Estimated
Sun 06:58:00 AM 49.4606 4.9475 255° West  Level Estimated
Sun 06:59:00 AM 49.4474 4.8719 255° West  Level Estimated
Sun 07:00:00 AM 49.4341 4.7964 255° West  Level Estimated
Sun 07:01:00 AM 49.4208 4.7209 255° West  Level Estimated
Sun 07:02:00 AM 49.4074 4.6454 255° West  Level Estimated
Sun 07:03:00 AM 49.3939 4.5700 255° West  Level Estimated
Sun 07:04:00 AM 49.3805 4.4947 255° West  Level Estimated
Sun 07:05:00 AM 49.3669 4.4194 255° West  Level Estimated
Sun 07:06:00 AM 49.3533 4.3441 255° West  Level Estimated
Sun 07:07:00 AM 49.3397 4.2688 254° West  Level Estimated
Sun 07:08:00 AM 49.3260 4.1936 254° West  Level Estimated
Sun 07:09:00 AM 49.3123 4.1185 254° West  Level Estimated
Sun 07:10:00 AM 49.2985 4.0434 254° West  Level Estimated
Sun 07:11:00 AM 49.2847 3.9683 254° West  Level Estimated
Sun 07:12:00 AM 49.2708 3.8933 254° West  Level Estimated
Sun 07:13:00 AM 49.2569 3.8183 254° West  Level Estimated
Sun 07:14:00 AM 49.2429 3.7434 254° West  Level Estimated
Sun 07:15:00 AM 49.2289 3.6685 254° West  Level Estimated
Sun 07:16:00 AM 49.2148 3.5936 254° West  Level Estimated
Sun 07:17:00 AM 49.2007 3.5188 254° West  Level Estimated
Sun 07:18:00 AM 49.1865 3.4440 254° West  Level Estimated
Sun 07:19:00 AM 49.1723 3.3693 254° West  Level Estimated
Sun 07:20:00 AM 49.1581 3.2946 254° West  Level Estimated
Sun 07:21:00 AM 49.1438 3.2199 254° West  Level Estimated
Sun 07:22:00 AM 49.1294 3.1453 254° West  Level Estimated
Sun 07:23:00 AM 49.1150 3.0708 254° West  Level Estimated
Sun 07:24:00 AM 49.1005 2.9963 254° West  Level Estimated
Sun 07:25:00 AM 49.0860 2.9218 253° West  Level Estimated
Sun 07:26:00 AM 49.0715 2.8474 253° West  Level Estimated
Sun 07:27:00 AM 49.0569 2.7730 253° West  Level Estimated
Sun 07:28:00 AM 49.0422 2.6986 253° West  Level Estimated
Sun 07:29:00 AM 49.0275 2.6244 253° West  Level Estimated
Sun 07:30:00 AM 49.0128 2.5501 253° West  Level Estimated
Sun 07:31:00 AM 49.0128 2.5500 252° West  Level Estimated
Sun 07:32:00 AM 49.0128 2.5500 180° South  Level Estimated
Sun 07:33:00 AM 49.0128 2.5500 180° South  Level Estimated
Sun 07:34:00 AM 49.0128 2.5500 180° South  Level Estimated
Sun 07:35:00 AM 49.0128 2.5500 180° South  Level Estimated
Sun 07:36:00 AM 49.0128 2.5500 180° South  Level Estimated
Sun 07:37:00 AM 49.0128 2.5500 180° South  Level Estimated
Sun 07:38:00 AM 49.0128 2.5500 180° South  Level Estimated

Login

Don't have an account? Register now (free) for customized features, flight alerts, and more!